Time;durP1;ratioP1;P1;durP2;ratioP2;P2;SDS_P1;SDS_P2;PMS_P1;PMS_P2;Temp;Humidity;BMP_temperature;BMP_pressure;BME280_temperature;BME280_humidity;BME280_pressure;Samples;Min_cycle;Max_cycle;Signal;HPM_P1;HPM_P2
2023/06/07 00:01:13;;;;;;;11.80;5.40;;;;;;;;;;110247;1278;22203;-84
2023/06/07 00:03:41;;;;;;;12.40;5.50;;;;;;;;;;110445;1261;22615;-84
2023/06/07 00:06:14;;;;;;;11.50;5.60;;;;;;;;;;110063;1279;22112;-85
2023/06/07 00:08:43;;;;;;;10.00;5.50;;;;;;;;;;110244;1279;21983;-83
2023/06/07 00:11:16;;;;;;;9.30;5.00;;;;;;;;;;110187;1279;22798;-83
2023/06/07 00:13:52;;;;;;;11.80;4.90;;;;;;;;;;110569;1259;22122;-87
2023/06/07 00:16:19;;;;;;;10.80;5.20;;;;;;;;;;110214;1277;22590;-84
2023/06/07 00:18:45;;;;;;;10.90;4.90;;;;;;;;;;110371;1277;22112;-83
2023/06/07 00:21:12;;;;;;;10.50;5.40;;;;;;;;;;110430;1277;22082;-83
2023/06/07 00:23:42;;;;;;;11.60;5.30;;;;;;;;;;110518;1258;22076;-83
2023/06/07 00:26:09;;;;;;;10.30;4.90;;;;;;;;;;110371;1278;22125;-83
2023/06/07 00:28:35;;;;;;;10.00;5.20;;;;;;;;;;110071;1278;22122;-83
2023/06/07 00:31:02;;;;;;;11.10;5.40;;;;;;;;;;110238;1278;22138;-84
2023/06/07 00:33:29;;;;;;;10.60;5.80;;;;;;;;;;110303;1257;22109;-88
2023/06/07 00:35:56;;;;;;;13.40;5.80;;;;;;;;;;110239;1277;22056;-84
2023/06/07 00:38:23;;;;;;;10.00;5.80;;;;;;;;;;110217;1277;21716;-83
2023/06/07 00:40:55;;;;;;;10.90;5.50;;;;;;;;;;110201;1277;22077;-86
2023/06/07 00:43:24;;;;;;;13.50;6.00;;;;;;;;;;110151;1263;22086;-83
2023/06/07 00:45:51;;;;;;;11.20;5.30;;;;;;;;;;110458;1277;22125;-83
2023/06/07 00:48:18;;;;;;;11.70;5.60;;;;;;;;;;110379;1277;22340;-83
2023/06/07 00:50:45;;;;;;;11.30;5.50;;;;;;;;;;110224;1278;22111;-83
2023/06/07 00:53:13;;;;;;;11.10;5.20;;;;;;;;;;110147;1256;22031;-83
2023/06/07 00:55:40;;;;;;;10.70;5.60;;;;;;;;;;110153;1278;22893;-83
2023/06/07 00:58:10;;;;;;;11.30;5.80;;;;;;;;;;110286;1278;22756;-83
2023/06/07 01:00:39;;;;;;;10.00;5.10;;;;;;;;;;110199;1278;22124;-83
2023/06/07 01:03:06;;;;;;;10.00;5.30;;;;;;;;;;110168;1278;27242;-84
2023/06/07 01:12:39;;;;;;;8.60;5.00;;;;;;;;;;110027;1282;22902;-83
2023/06/07 01:15:06;;;;;;;11.30;6.10;;;;;;;;;;110216;1260;22179;-83
2023/06/07 01:17:40;;;;;;;10.30;5.20;;;;;;;;;;109992;1283;23410;-83
2023/06/07 01:20:12;;;;;;;15.10;6.20;;;;;;;;;;110018;1283;22288;-83
2023/06/07 01:22:42;;;;;;;11.10;5.10;;;;;;;;;;110001;1283;22160;-82
2023/06/07 01:25:09;;;;;;;10.60;5.80;;;;;;;;;;110014;1264;22895;-83
2023/06/07 01:27:40;;;;;;;10.80;5.50;;;;;;;;;;109942;1282;22941;-83
2023/06/07 01:30:08;;;;;;;10.50;5.50;;;;;;;;;;109984;1282;22858;-82
2023/06/07 01:32:37;;;;;;;9.90;5.90;;;;;;;;;;110041;1282;22157;-83
2023/06/07 01:35:05;;;;;;;10.50;6.10;;;;;;;;;;110066;1265;22879;-83
2023/06/07 01:37:34;;;;;;;11.10;6.50;;;;;;;;;;109963;1283;22156;-84
2023/06/07 01:40:01;;;;;;;11.80;6.10;;;;;;;;;;109965;1283;22203;-83
2023/06/07 01:42:29;;;;;;;11.10;5.70;;;;;;;;;;109978;1283;22170;-83
2023/06/07 01:44:56;;;;;;;10.50;6.10;;;;;;;;;;110067;1261;22885;-83
2023/06/07 01:47:23;;;;;;;10.70;6.00;;;;;;;;;;110205;1278;22825;-83
2023/06/07 01:49:49;;;;;;;10.70;6.60;;;;;;;;;;110296;1278;22174;-83
2023/06/07 01:52:16;;;;;;;13.70;6.30;;;;;;;;;;110197;1278;22128;-82
2023/06/07 01:54:43;;;;;;;12.40;6.00;;;;;;;;;;110219;1257;22194;-82
2023/06/07 01:57:31;;;;;;;12.50;6.20;;;;;;;;;;110098;1279;22219;-82
2023/06/07 02:00:05;;;;;;;9.80;5.90;;;;;;;;;;110148;1276;22749;-84
2023/06/07 02:02:53;;;;;;;11.40;5.80;;;;;;;;;;110218;1279;22112;-82
2023/06/07 02:05:24;;;;;;;12.20;6.20;;;;;;;;;;110270;1257;22804;-83
2023/06/07 02:07:55;;;;;;;12.10;6.60;;;;;;;;;;110210;1278;22116;-82
2023/06/07 02:10:26;;;;;;;14.90;7.20;;;;;;;;;;110215;1278;22724;-83
2023/06/07 02:12:53;;;;;;;11.60;7.10;;;;;;;;;;110137;1278;22020;-83
2023/06/07 02:15:21;;;;;;;12.10;6.90;;;;;;;;;;110201;1262;22091;-83
2023/06/07 02:17:48;;;;;;;11.40;7.10;;;;;;;;;;110124;1279;22106;-82
2023/06/07 02:20:17;;;;;;;11.50;6.70;;;;;;;;;;110155;1279;21661;-82
2023/06/07 02:22:44;;;;;;;12.30;7.80;;;;;;;;;;110119;1279;22336;-82
2023/06/07 02:25:10;;;;;;;11.20;6.40;;;;;;;;;;110157;1256;22491;-82
2023/06/07 02:27:37;;;;;;;18.50;8.20;;;;;;;;;;110170;1279;22287;-82
2023/06/07 02:30:06;;;;;;;13.90;7.70;;;;;;;;;;110132;1279;22200;-82
2023/06/07 02:32:38;;;;;;;13.30;7.50;;;;;;;;;;110154;1276;22137;-82
2023/06/07 02:35:25;;;;;;;15.20;8.40;;;;;;;;;;110232;1256;22124;-83
2023/06/07 02:37:55;;;;;;;13.80;8.40;;;;;;;;;;110348;1278;22428;-83
2023/06/07 02:40:25;;;;;;;15.10;8.90;;;;;;;;;;110207;1278;22146;-83
2023/06/07 02:42:58;;;;;;;13.70;8.50;;;;;;;;;;110144;1278;22296;-84
2023/06/07 02:45:25;;;;;;;13.40;8.00;;;;;;;;;;110196;1256;22174;-83
2023/06/07 02:47:54;;;;;;;18.30;8.60;;;;;;;;;;110048;1276;22993;-83
2023/06/07 02:50:22;;;;;;;12.90;7.50;;;;;;;;;;110132;1279;22180;-83
2023/06/07 02:52:55;;;;;;;13.10;8.00;;;;;;;;;;110109;1280;22897;-83
2023/06/07 02:55:22;;;;;;;13.20;7.90;;;;;;;;;;110059;1279;22408;-83
2023/06/07 02:57:48;;;;;;;15.40;7.10;;;;;;;;;;110101;1264;22386;-83
2023/06/07 03:00:17;;;;;;;14.20;8.30;;;;;;;;;;110119;1279;22774;-83
2023/06/07 03:02:59;;;;;;;15.10;7.50;;;;;;;;;;110198;1279;22134;-83
2023/06/07 03:05:31;;;;;;;13.20;8.20;;;;;;;;;;110065;1279;22122;-83
2023/06/07 03:08:03;;;;;;;15.30;7.50;;;;;;;;;;110178;1260;22123;-83
2023/06/07 03:10:33;;;;;;;13.20;7.50;;;;;;;;;;110071;1280;22125;-83
2023/06/07 03:13:02;;;;;;;13.50;7.50;;;;;;;;;;110059;1280;22137;-84
2023/06/07 03:15:38;;;;;;;13.30;7.60;;;;;;;;;;110101;1280;22108;-84
2023/06/07 03:18:05;;;;;;;13.40;7.40;;;;;;;;;;110459;1260;22833;-84
2023/06/07 03:20:34;;;;;;;12.20;7.70;;;;;;;;;;110119;1279;22119;-83
2023/06/07 03:23:05;;;;;;;13.70;8.10;;;;;;;;;;110198;1279;22117;-84
2023/06/07 03:25:35;;;;;;;12.80;8.00;;;;;;;;;;110174;1279;22843;-84
2023/06/07 03:28:11;;;;;;;11.10;7.10;;;;;;;;;;110191;1261;22010;-84
2023/06/07 03:30:41;;;;;;;12.10;8.30;;;;;;;;;;110048;1280;22142;-84
2023/06/07 03:33:14;;;;;;;11.90;8.00;;;;;;;;;;110097;1280;22776;-83
2023/06/07 03:35:41;;;;;;;14.00;7.70;;;;;;;;;;110185;1273;22241;-84
2023/06/07 03:38:13;;;;;;;13.60;7.50;;;;;;;;;;110181;1262;22597;-84
2023/06/07 03:40:41;;;;;;;15.60;8.00;;;;;;;;;;110127;1264;22107;-84
2023/06/07 03:43:09;;;;;;;11.40;7.30;;;;;;;;;;110105;1279;22090;-84
2023/06/07 03:45:36;;;;;;;13.60;7.90;;;;;;;;;;110151;1275;22124;-84
2023/06/07 03:48:08;;;;;;;15.90;8.20;;;;;;;;;;110351;1263;22110;-84
2023/06/07 03:50:36;;;;;;;14.40;8.10;;;;;;;;;;110100;1280;22933;-84
2023/06/07 03:53:03;;;;;;;11.30;7.80;;;;;;;;;;110111;1280;22111;-84
2023/06/07 03:55:30;;;;;;;14.40;8.30;;;;;;;;;;110033;1280;22127;-84
2023/06/07 03:58:18;;;;;;;14.30;8.90;;;;;;;;;;110284;1263;22127;-84
2023/06/07 04:00:47;;;;;;;11.60;7.70;;;;;;;;;;110068;1280;22088;-84
2023/06/07 04:03:14;;;;;;;13.10;7.40;;;;;;;;;;110008;1280;22135;-83
2023/06/07 04:05:41;;;;;;;13.60;7.70;;;;;;;;;;110041;1280;22150;-84
2023/06/07 04:08:09;;;;;;;13.50;7.20;;;;;;;;;;110319;1262;22126;-84
2023/06/07 04:10:36;;;;;;;15.00;7.80;;;;;;;;;;110131;1279;22116;-84
2023/06/07 04:13:03;;;;;;;14.50;7.70;;;;;;;;;;110107;1279;22126;-84
2023/06/07 04:15:29;;;;;;;14.50;8.20;;;;;;;;;;110141;1279;22100;-84
2023/06/07 04:17:57;;;;;;;14.90;8.20;;;;;;;;;;110159;1263;22810;-84
2023/06/07 04:20:24;;;;;;;16.50;8.90;;;;;;;;;;110083;1280;22069;-84
2023/06/07 04:22:52;;;;;;;13.40;8.00;;;;;;;;;;110017;1280;21973;-84
2023/06/07 04:25:27;;;;;;;16.10;8.40;;;;;;;;;;110130;1280;22850;-85
2023/06/07 04:27:59;;;;;;;14.60;8.50;;;;;;;;;;110140;1259;22917;-85
2023/06/07 04:30:36;;;;;;;13.80;8.50;;;;;;;;;;110109;1280;22089;-84
2023/06/07 04:33:08;;;;;;;12.20;8.90;;;;;;;;;;110114;1279;22128;-84
2023/06/07 04:35:42;;;;;;;14.00;8.90;;;;;;;;;;110164;1279;22089;-84
2023/06/07 04:38:11;;;;;;;14.00;8.20;;;;;;;;;;110261;1262;22821;-84
2023/06/07 04:40:42;;;;;;;16.00;8.20;;;;;;;;;;110037;1280;22132;-85
2023/06/07 04:43:10;;;;;;;13.40;8.80;;;;;;;;;;110085;1280;22095;-84
2023/06/07 04:45:40;;;;;;;12.20;7.70;;;;;;;;;;110034;1280;21988;-84
2023/06/07 04:48:07;;;;;;;15.40;8.10;;;;;;;;;;110034;1259;22822;-84
2023/06/07 04:50:41;;;;;;;14.00;7.60;;;;;;;;;;110082;1280;22156;-84
2023/06/07 04:53:10;;;;;;;14.60;8.20;;;;;;;;;;110037;1280;22129;-84
2023/06/07 04:55:41;;;;;;;18.80;8.20;;;;;;;;;;110140;1280;22080;-84
2023/06/07 04:58:09;;;;;;;14.00;8.10;;;;;;;;;;110022;1257;22149;-85
2023/06/07 05:00:38;;;;;;;14.70;8.70;;;;;;;;;;110001;1281;22112;-84
2023/06/07 05:03:08;;;;;;;12.90;8.20;;;;;;;;;;110011;1281;22099;-84
2023/06/07 05:05:36;;;;;;;14.60;8.60;;;;;;;;;;110012;1281;22099;-84
2023/06/07 05:08:04;;;;;;;16.20;8.70;;;;;;;;;;109985;1280;22356;-84
2023/06/07 05:10:32;;;;;;;18.50;8.30;;;;;;;;;;110607;1259;22798;-85
2023/06/07 05:13:01;;;;;;;14.70;8.00;;;;;;;;;;110060;1280;22145;-85
2023/06/07 05:15:31;;;;;;;16.50;8.00;;;;;;;;;;110042;1280;22489;-85
2023/06/07 05:17:58;;;;;;;13.60;7.90;;;;;;;;;;110131;1280;22456;-85
2023/06/07 05:20:29;;;;;;;14.10;8.50;;;;;;;;;;110280;1260;22132;-84
2023/06/07 05:23:03;;;;;;;16.70;8.80;;;;;;;;;;110024;1281;22154;-84
2023/06/07 05:25:33;;;;;;;13.60;8.40;;;;;;;;;;110049;1281;22106;-85
2023/06/07 05:28:03;;;;;;;17.40;8.50;;;;;;;;;;110055;1281;22109;-85
2023/06/07 05:30:34;;;;;;;15.30;8.70;;;;;;;;;;110519;1260;21985;-85
2023/06/07 05:33:02;;;;;;;14.40;8.00;;;;;;;;;;110063;1280;22006;-85
2023/06/07 05:35:30;;;;;;;13.00;7.60;;;;;;;;;;110061;1280;22127;-84
2023/06/07 05:37:58;;;;;;;13.60;8.00;;;;;;;;;;110124;1280;22092;-84
2023/06/07 05:40:26;;;;;;;12.50;8.00;;;;;;;;;;110312;1261;22943;-85
2023/06/07 05:42:56;;;;;;;13.20;8.10;;;;;;;;;;110080;1281;22566;-85
2023/06/07 05:45:25;;;;;;;14.70;8.30;;;;;;;;;;109993;1281;22117;-84
2023/06/07 05:47:53;;;;;;;14.20;8.30;;;;;;;;;;110097;1281;22094;-84
2023/06/07 05:50:23;;;;;;;13.50;8.10;;;;;;;;;;110270;1259;22926;-84
2023/06/07 05:52:56;;;;;;;14.90;8.40;;;;;;;;;;110005;1281;22119;-84
2023/06/07 05:55:29;;;;;;;19.30;8.70;;;;;;;;;;110066;1281;22134;-85
2023/06/07 05:57:57;;;;;;;16.00;8.50;;;;;;;;;;110061;1281;22180;-86
2023/06/07 06:00:27;;;;;;;14.30;7.90;;;;;;;;;;110210;1263;22115;-84
2023/06/07 06:02:56;;;;;;;15.10;7.90;;;;;;;;;;110033;1280;22106;-84
2023/06/07 06:05:27;;;;;;;13.40;7.70;;;;;;;;;;110097;1280;21664;-84
2023/06/07 06:07:57;;;;;;;16.00;8.50;;;;;;;;;;110054;1278;22136;-84
2023/06/07 06:10:28;;;;;;;17.80;8.40;;;;;;;;;;110156;1264;22199;-84
2023/06/07 06:12:58;;;;;;;18.80;8.70;;;;;;;;;;110021;1281;22150;-84
2023/06/07 06:15:28;;;;;;;20.30;8.40;;;;;;;;;;110077;1281;22107;-84
2023/06/07 06:18:01;;;;;;;15.70;8.20;;;;;;;;;;110101;1281;22139;-84
2023/06/07 06:49:24;;;;;;;18.70;10.50;;;;;;;;;;103789;1308;549769;-84
2023/06/07 06:51:54;;;;;;;20.30;11.00;;;;;;;;;;102171;1286;5341192;-87
2023/06/07 06:54:23;;;;;;;15.40;10.10;;;;;;;;;;106260;1286;24246;-86
2023/06/07 06:56:51;;;;;;;20.20;9.90;;;;;;;;;;106179;1286;24221;-85
2023/06/07 06:59:27;;;;;;;17.80;9.40;;;;;;;;;;106496;1269;25372;-88
2023/06/07 07:01:56;;;;;;;15.60;9.10;;;;;;;;;;106447;1285;25502;-87
2023/06/07 07:04:26;;;;;;;16.20;8.90;;;;;;;;;;106370;1285;25258;-83
2023/06/07 07:06:53;;;;;;;15.70;9.20;;;;;;;;;;106137;1285;25246;-85
2023/06/07 07:09:22;;;;;;;14.90;10.20;;;;;;;;;;106391;1269;24182;-84
2023/06/07 07:11:54;;;;;;;16.10;9.70;;;;;;;;;;106880;1278;22539;-85
2023/06/07 07:14:26;;;;;;;17.40;9.80;;;;;;;;;;106881;1256;22509;-85
2023/06/07 07:16:53;;;;;;;16.10;9.30;;;;;;;;;;106794;1278;22535;-84
2023/06/07 07:19:50;;;;;;;14.20;9.90;;;;;;;;;;106660;1262;24409;-87
2023/06/07 07:22:17;;;;;;;16.20;9.80;;;;;;;;;;106841;1278;22536;-89
2023/06/07 07:24:50;;;;;;;16.40;9.40;;;;;;;;;;106845;1278;22670;-84
2023/06/07 07:27:18;;;;;;;17.70;9.60;;;;;;;;;;106864;1278;25252;-85
2023/06/07 07:29:51;;;;;;;19.50;9.50;;;;;;;;;;106908;1264;26493;-83
2023/06/07 07:32:38;;;;;;;20.50;9.50;;;;;;;;;;106954;1256;23192;-84
2023/06/07 07:35:06;;;;;;;21.20;9.60;;;;;;;;;;106641;1280;22751;-83
2023/06/07 07:37:32;;;;;;;22.20;10.40;;;;;;;;;;107124;1265;22655;-82
2023/06/07 07:39:59;;;;;;;22.20;10.10;;;;;;;;;;106912;1277;24170;-89
2023/06/07 07:42:31;;;;;;;18.00;9.80;;;;;;;;;;106486;1281;23911;-83
2023/06/07 07:45:06;;;;;;;18.40;11.40;;;;;;;;;;106713;1281;22523;-85
2023/06/07 07:47:38;;;;;;;21.10;10.80;;;;;;;;;;106497;1281;22520;-89
2023/06/07 07:50:13;;;;;;;16.30;10.20;;;;;;;;;;106568;1265;22531;-87
2023/06/07 07:52:46;;;;;;;14.20;9.50;;;;;;;;;;106859;1281;24072;-83
2023/06/07 07:55:15;;;;;;;16.60;10.40;;;;;;;;;;106844;1281;22528;-83
2023/06/07 07:57:48;;;;;;;15.70;9.20;;;;;;;;;;106782;1281;25252;-83
2023/06/07 08:00:16;;;;;;;13.70;9.60;;;;;;;;;;106896;1262;22656;-87
2023/06/07 08:02:44;;;;;;;15.90;10.10;;;;;;;;;;106669;1281;22548;-83
2023/06/07 08:05:11;;;;;;;16.30;9.60;;;;;;;;;;106741;1280;22483;-85
2023/06/07 08:07:39;;;;;;;13.20;9.00;;;;;;;;;;106774;1281;22523;-90
2023/06/07 08:10:13;;;;;;;15.90;9.50;;;;;;;;;;106762;1262;22523;-89
2023/06/07 08:12:40;;;;;;;15.70;9.60;;;;;;;;;;106690;1281;22523;-85
2023/06/07 08:15:08;;;;;;;16.00;9.60;;;;;;;;;;106571;1281;22549;-88
2023/06/07 08:17:43;;;;;;;21.00;10.50;;;;;;;;;;106626;1281;25285;-84
2023/06/07 08:20:14;;;;;;;16.30;9.40;;;;;;;;;;106600;1262;22658;-86
2023/06/07 08:22:50;;;;;;;15.80;9.80;;;;;;;;;;106595;1281;25367;-85
2023/06/07 08:25:33;;;;;;;;;;;;;;;;;;;;;
2023/06/07 08:28:05;;;;;;;18.10;10.70;;;;;;;;;;106631;1281;24177;-84
2023/06/07 08:30:42;;;;;;;;;;;;;;;;;;;;;
2023/06/07 08:33:09;;;;;;;18.00;11.40;;;;;;;;;;106714;1280;22539;-83
2023/06/07 08:35:42;;;;;;;21.00;11.20;;;;;;;;;;106672;1281;23881;-88
2023/06/07 08:38:16;;;;;;;18.80;10.70;;;;;;;;;;106817;1281;22530;-84
2023/06/07 08:40:43;;;;;;;18.90;10.60;;;;;;;;;;106621;1265;22524;-88
2023/06/07 08:43:41;;;;;;;;;;;;;;;;;;;;;
2023/06/07 08:46:21;;;;;;;16.90;9.70;;;;;;;;;;106796;1281;25512;-85
2023/06/07 08:48:55;;;;;;;15.70;9.40;;;;;;;;;;106697;1281;23871;-84
2023/06/07 08:51:30;;;;;;;16.40;10.50;;;;;;;;;;106521;1265;25220;-85
2023/06/07 08:54:20;;;;;;;18.00;10.20;;;;;;;;;;106673;1278;22528;-83
2023/06/07 08:56:47;;;;;;;18.40;10.90;;;;;;;;;;106725;1281;22507;-85
2023/06/07 08:59:14;;;;;;;14.00;10.30;;;;;;;;;;106673;1281;22536;-84
2023/06/07 09:01:42;;;;;;;17.30;9.60;;;;;;;;;;106745;1263;25378;-85
2023/06/07 09:04:11;;;;;;;14.10;9.30;;;;;;;;;;106522;1281;22524;-85
2023/06/07 09:06:51;;;;;;;17.60;9.20;;;;;;;;;;106648;1278;22527;-84
2023/06/07 09:09:27;;;;;;;18.90;10.40;;;;;;;;;;106743;1281;22527;-87
2023/06/07 09:11:57;;;;;;;19.50;8.70;;;;;;;;;;106724;1262;22526;-85
2023/06/07 09:14:49;;;;;;;12.60;8.50;;;;;;;;;;106557;1281;22531;-86
2023/06/07 09:17:14;;;;;;;17.20;8.20;;;;;;;;;;106505;1281;22610;-87
2023/06/07 09:19:42;;;;;;;16.20;8.40;;;;;;;;;;106636;1281;22529;-86
2023/06/07 09:22:38;;;;;;;15.40;9.10;;;;;;;;;;106675;1274;22491;-83
2023/06/07 09:25:06;;;;;;;16.30;9.00;;;;;;;;;;106636;1281;22581;-86
2023/06/07 09:27:39;;;;;;;13.40;8.10;;;;;;;;;;106568;1281;22590;-85
2023/06/07 09:30:28;;;;;;;14.30;9.50;;;;;;;;;;106817;1278;22527;-88
2023/06/07 09:33:13;;;;;;;;;;;;;;;;;;;;;
2023/06/07 09:36:01;;;;;;;12.70;8.90;;;;;;;;;;106873;1279;22518;-86
2023/06/07 09:38:28;;;;;;;13.40;8.60;;;;;;;;;;106679;1271;22521;-88
2023/06/07 09:41:18;;;;;;;13.70;8.30;;;;;;;;;;106643;1256;23713;-85
2023/06/07 09:43:47;;;;;;;14.00;8.00;;;;;;;;;;106867;1278;24327;-85
2023/06/07 09:46:24;;;;;;;13.20;8.50;;;;;;;;;;106876;1278;24194;-86
2023/06/07 09:49:21;;;;;;;15.30;9.00;;;;;;;;;;106863;1278;25204;-85
2023/06/07 09:51:51;;;;;;;15.70;7.80;;;;;;;;;;106817;1262;22530;-92
2023/06/07 09:54:40;;;;;;;13.00;8.10;;;;;;;;;;106756;1279;22536;-87
2023/06/07 09:57:11;;;;;;;11.70;7.70;;;;;;;;;;106706;1279;24084;-88
2023/06/07 09:59:57;;;;;;;11.40;7.50;;;;;;;;;;106665;1279;22524;-87
2023/06/07 10:02:29;;;;;;;11.40;6.90;;;;;;;;;;106718;1262;25446;-88
2023/06/07 10:05:07;;;;;;;12.10;7.60;;;;;;;;;;106582;1278;24285;-88
2023/06/07 10:07:55;;;;;;;13.20;7.30;;;;;;;;;;106788;1278;22519;-89
2023/06/07 10:10:47;;;;;;;14.00;7.30;;;;;;;;;;106814;1275;24194;-93
2023/06/07 10:13:18;;;;;;;12.90;7.00;;;;;;;;;;106851;1260;22528;-87
2023/06/07 10:15:46;;;;;;;14.10;7.20;;;;;;;;;;106844;1278;24223;-87
2023/06/07 10:18:17;;;;;;;10.90;7.00;;;;;;;;;;106825;1278;22528;-85
2023/06/07 10:21:07;;;;;;;16.40;7.40;;;;;;;;;;106884;1278;25220;-87
2023/06/07 10:24:04;;;;;;;13.30;6.30;;;;;;;;;;106834;1259;24276;-90
2023/06/07 10:26:53;;;;;;;12.00;6.10;;;;;;;;;;106868;1257;24196;-84
2023/06/07 10:29:42;;;;;;;10.10;6.50;;;;;;;;;;106869;1278;24217;-86
2023/06/07 10:32:34;;;;;;;10.30;6.40;;;;;;;;;;106678;1260;22535;-86
2023/06/07 10:38:07;;;;;;;11.00;6.90;;;;;;;;;;106759;1278;24394;-90
2023/06/07 10:40:44;;;;;;;10.80;6.80;;;;;;;;;;106859;1278;22621;-86
2023/06/07 10:43:21;;;;;;;10.60;6.40;;;;;;;;;;106813;1261;22483;-89
2023/06/07 10:46:30;;;;;;;13.30;6.50;;;;;;;;;;106703;1279;25332;-87
2023/06/07 10:49:05;;;;;;;11.20;6.60;;;;;;;;;;106798;1279;22669;-87
2023/06/07 10:52:11;;;;;;;11.40;6.20;;;;;;;;;;106844;1279;25435;-84
2023/06/07 10:54:51;;;;;;;;;;;;;;;;;;;;;
2023/06/07 10:57:40;;;;;;;11.40;6.30;;;;;;;;;;106846;1279;22530;-92
2023/06/07 11:00:47;;;;;;;10.90;6.30;;;;;;;;;;106748;1279;25226;-84
2023/06/07 11:03:39;;;;;;;11.10;5.50;;;;;;;;;;106849;1261;23550;-88
2023/06/07 11:06:06;;;;;;;10.90;6.10;;;;;;;;;;110114;1279;22150;-83
2023/06/07 11:08:43;;;;;;;10.00;6.20;;;;;;;;;;110143;1280;22226;-83
2023/06/07 11:11:28;;;;;;;11.40;6.00;;;;;;;;;;110074;1279;22209;-83
2023/06/07 11:14:15;;;;;;;9.70;5.50;;;;;;;;;;110288;1260;22919;-83
2023/06/07 11:16:42;;;;;;;9.00;5.40;;;;;;;;;;110240;1268;22255;-83
2023/06/07 11:19:11;;;;;;;10.70;5.00;;;;;;;;;;110254;1278;22390;-82
2023/06/07 11:22:19;;;;;;;8.60;5.50;;;;;;;;;;110244;1278;22946;-84
2023/06/07 11:25:11;;;;;;;9.40;5.50;;;;;;;;;;110269;1260;22109;-83
2023/06/07 11:27:39;;;;;;;9.30;5.20;;;;;;;;;;110344;1275;22133;-83
2023/06/07 11:30:07;;;;;;;10.40;5.00;;;;;;;;;;110300;1278;22730;-83
2023/06/07 11:32:37;;;;;;;9.20;5.10;;;;;;;;;;110176;1277;22115;-87
2023/06/07 11:35:13;;;;;;;9.50;4.90;;;;;;;;;;110259;1260;22614;-84
2023/06/07 11:37:45;;;;;;;8.60;5.30;;;;;;;;;;110269;1278;22117;-83
2023/06/07 11:40:12;;;;;;;8.90;5.40;;;;;;;;;;110316;1277;22092;-82
2023/06/07 11:42:39;;;;;;;9.30;5.10;;;;;;;;;;110194;1278;22136;-82
2023/06/07 11:45:06;;;;;;;8.20;5.30;;;;;;;;;;110456;1259;22158;-82
2023/06/07 11:47:33;;;;;;;9.50;5.30;;;;;;;;;;110297;1278;22106;-81
2023/06/07 11:50:00;;;;;;;10.00;5.30;;;;;;;;;;110263;1277;22887;-81
2023/06/07 11:52:26;;;;;;;10.30;5.50;;;;;;;;;;110313;1277;22121;-82
2023/06/07 11:54:56;;;;;;;9.20;5.60;;;;;;;;;;110303;1262;22108;-85
2023/06/07 11:57:22;;;;;;;10.30;5.80;;;;;;;;;;110255;1278;22870;-81
2023/06/07 11:59:51;;;;;;;10.10;5.60;;;;;;;;;;110238;1277;22105;-83
2023/06/07 12:02:18;;;;;;;10.80;5.70;;;;;;;;;;110130;1277;22231;-81
2023/06/07 12:04:45;;;;;;;9.90;5.90;;;;;;;;;;110455;1259;22817;-81
2023/06/07 12:07:20;;;;;;;10.70;6.00;;;;;;;;;;110165;1278;22075;-82
2023/06/07 12:09:49;;;;;;;10.30;5.70;;;;;;;;;;110161;1278;22137;-82
2023/06/07 12:12:16;;;;;;;9.50;6.00;;;;;;;;;;110159;1279;22123;-81
2023/06/07 12:14:45;;;;;;;11.60;6.20;;;;;;;;;;110334;1260;22168;-81
2023/06/07 12:17:12;;;;;;;8.40;5.10;;;;;;;;;;110331;1278;22156;-81
2023/06/07 12:19:40;;;;;;;10.30;6.10;;;;;;;;;;110350;1278;22130;-81
2023/06/07 12:22:10;;;;;;;9.00;5.60;;;;;;;;;;110347;1278;22139;-80
2023/06/07 12:24:40;;;;;;;8.20;5.80;;;;;;;;;;110231;1256;21985;-81
2023/06/07 12:27:11;;;;;;;9.90;5.90;;;;;;;;;;110106;1279;22188;-82
2023/06/07 12:29:40;;;;;;;10.40;5.80;;;;;;;;;;110242;1279;22145;-81
2023/06/07 12:32:08;;;;;;;12.60;6.20;;;;;;;;;;110233;1279;22300;-82
2023/06/07 12:34:41;;;;;;;11.20;5.80;;;;;;;;;;110267;1256;22985;-81
2023/06/07 12:37:09;;;;;;;10.00;6.20;;;;;;;;;;110134;1278;22224;-80
2023/06/07 12:39:39;;;;;;;11.10;6.50;;;;;;;;;;110274;1278;22114;-81
2023/06/07 12:42:06;;;;;;;11.30;5.90;;;;;;;;;;110289;1278;22160;-80
2023/06/07 12:44:42;;;;;;;11.20;5.40;;;;;;;;;;110259;1278;22384;-82
2023/06/07 12:47:09;;;;;;;13.50;6.00;;;;;;;;;;110323;1265;22402;-80
2023/06/07 12:49:36;;;;;;;12.30;6.20;;;;;;;;;;110273;1279;22107;-81
2023/06/07 12:52:03;;;;;;;19.40;6.60;;;;;;;;;;110095;1279;22099;-81
2023/06/07 12:54:30;;;;;;;10.50;5.40;;;;;;;;;;110171;1279;22114;-80
2023/06/07 12:56:57;;;;;;;11.60;5.90;;;;;;;;;;110591;1259;22176;-81
2023/06/07 12:59:27;;;;;;;10.30;6.20;;;;;;;;;;110107;1278;22061;-83
2023/06/07 13:01:54;;;;;;;10.10;5.90;;;;;;;;;;110095;1278;22092;-80
2023/06/07 13:04:21;;;;;;;11.50;5.90;;;;;;;;;;110123;1278;22100;-81
2023/06/07 13:06:49;;;;;;;11.60;6.30;;;;;;;;;;110330;1260;22103;-80
2023/06/07 13:09:24;;;;;;;12.00;6.60;;;;;;;;;;110107;1279;22111;-81
2023/06/07 13:11:51;;;;;;;12.80;6.60;;;;;;;;;;110120;1279;22207;-81
2023/06/07 13:14:18;;;;;;;10.30;5.90;;;;;;;;;;110115;1279;22108;-82
2023/06/07 13:16:48;;;;;;;12.60;6.50;;;;;;;;;;110398;1261;22161;-82
2023/06/07 13:19:15;;;;;;;14.70;6.00;;;;;;;;;;110190;1279;22129;-82
2023/06/07 13:21:42;;;;;;;11.90;6.10;;;;;;;;;;110148;1278;23217;-81
2023/06/07 13:24:09;;;;;;;11.90;5.50;;;;;;;;;;110082;1278;22374;-83
2023/06/07 13:26:36;;;;;;;15.30;6.60;;;;;;;;;;110271;1262;22923;-83
2023/06/07 13:29:02;;;;;;;14.10;6.80;;;;;;;;;;110274;1279;22163;-81
2023/06/07 13:31:35;;;;;;;12.60;6.50;;;;;;;;;;110276;1279;22395;-82
2023/06/07 13:34:02;;;;;;;11.60;5.70;;;;;;;;;;110140;1279;22403;-81
2023/06/07 13:36:28;;;;;;;12.90;5.90;;;;;;;;;;110346;1260;22126;-82
2023/06/07 13:38:56;;;;;;;12.20;6.00;;;;;;;;;;110149;1279;22126;-81
2023/06/07 13:41:23;;;;;;;10.90;6.20;;;;;;;;;;110151;1279;22114;-80
2023/06/07 13:43:50;;;;;;;9.00;5.40;;;;;;;;;;110246;1279;23293;-81
2023/06/07 13:46:17;;;;;;;10.30;6.10;;;;;;;;;;110216;1257;22841;-81
2023/06/07 13:48:44;;;;;;;11.30;6.20;;;;;;;;;;110145;1279;22126;-80
2023/06/07 13:51:11;;;;;;;13.70;6.20;;;;;;;;;;110155;1279;22133;-80
2023/06/07 13:53:42;;;;;;;13.10;5.80;;;;;;;;;;110230;1279;23107;-81
2023/06/07 13:56:09;;;;;;;10.50;6.20;;;;;;;;;;110100;1257;22400;-82
2023/06/07 13:58:36;;;;;;;11.60;6.20;;;;;;;;;;110110;1278;22933;-81
2023/06/07 14:01:06;;;;;;;10.30;5.60;;;;;;;;;;110299;1279;22742;-82
2023/06/07 14:03:33;;;;;;;12.70;5.80;;;;;;;;;;110221;1278;22422;-82
2023/06/07 14:06:00;;;;;;;11.00;6.00;;;;;;;;;;110221;1279;22830;-81
2023/06/07 14:08:30;;;;;;;9.40;5.70;;;;;;;;;;110456;1262;23355;-82
2023/06/07 14:10:57;;;;;;;10.70;5.90;;;;;;;;;;110229;1279;22971;-81
2023/06/07 14:13:24;;;;;;;10.10;5.70;;;;;;;;;;110158;1279;22116;-81
2023/06/07 14:15:51;;;;;;;12.80;5.90;;;;;;;;;;110234;1279;22093;-81
2023/06/07 14:18:17;;;;;;;10.70;5.70;;;;;;;;;;110365;1262;22132;-81
2023/06/07 14:20:44;;;;;;;9.40;5.90;;;;;;;;;;110282;1279;22147;-81
2023/06/07 14:23:11;;;;;;;13.60;6.00;;;;;;;;;;110217;1279;22082;-81
2023/06/07 14:25:37;;;;;;;10.80;6.10;;;;;;;;;;110233;1279;22198;-81
2023/06/07 14:28:17;;;;;;;;;;;;;;;;;;;;;
2023/06/07 14:30:44;;;;;;;10.60;6.20;;;;;;;;;;110148;1279;22188;-81
2023/06/07 14:33:11;;;;;;;9.00;5.30;;;;;;;;;;110090;1280;22088;-81
2023/06/07 14:35:38;;;;;;;9.80;5.50;;;;;;;;;;110149;1280;22092;-82
2023/06/07 14:38:08;;;;;;;8.20;5.00;;;;;;;;;;110179;1263;22108;-81
2023/06/07 14:40:53;;;;;;;9.80;5.40;;;;;;;;;;110260;1279;22091;-83
2023/06/07 14:43:23;;;;;;;12.10;6.20;;;;;;;;;;110162;1279;22833;-80
2023/06/07 14:45:50;;;;;;;9.40;5.50;;;;;;;;;;110151;1279;22904;-80
2023/06/07 14:48:24;;;;;;;10.50;5.70;;;;;;;;;;110180;1261;22135;-81
2023/06/07 14:50:51;;;;;;;10.70;5.90;;;;;;;;;;110111;1279;21978;-79
2023/06/07 14:53:22;;;;;;;11.00;5.40;;;;;;;;;;110131;1279;22209;-80
2023/06/07 14:55:48;;;;;;;9.20;5.30;;;;;;;;;;110272;1279;22850;-80
2023/06/07 14:58:16;;;;;;;13.70;5.20;;;;;;;;;;110227;1257;22141;-79
2023/06/07 15:00:43;;;;;;;9.30;4.60;;;;;;;;;;110203;1280;22110;-81
2023/06/07 15:03:10;;;;;;;9.70;4.50;;;;;;;;;;110110;1273;22087;-81
2023/06/07 15:05:37;;;;;;;9.90;4.60;;;;;;;;;;110181;1280;22143;-80
2023/06/07 15:08:05;;;;;;;9.60;4.80;;;;;;;;;;110116;1262;22099;-80
2023/06/07 15:10:32;;;;;;;9.50;4.70;;;;;;;;;;110148;1280;22443;-80
2023/06/07 15:12:58;;;;;;;8.00;4.10;;;;;;;;;;110153;1281;22099;-78
2023/06/07 15:15:26;;;;;;;8.70;3.80;;;;;;;;;;110165;1281;22118;-80
2023/06/07 15:17:53;;;;;;;12.30;4.50;;;;;;;;;;110097;1257;22167;-79
2023/06/07 15:20:20;;;;;;;11.50;4.10;;;;;;;;;;110113;1280;22100;-79
2023/06/07 15:22:47;;;;;;;7.80;3.80;;;;;;;;;;110125;1279;22596;-80
2023/06/07 15:25:14;;;;;;;8.50;4.20;;;;;;;;;;110114;1279;22097;-79
2023/06/07 15:27:42;;;;;;;8.00;4.60;;;;;;;;;;110198;1280;22136;-80